Hattiesburg Laurel Regional Airport
KPIB : now visible

Airfield :











YOU CAN JOIN US ON...

 
LOGIN :

Register | Disclaimer

   EN    FR    IT 

 









Legend :    VFR   Marginal VFR   IFR   Intensive IFR   Very Intensive IFR
Visi :
Ceiling :
>= 8 km
>= 3000ft
5 to 8 km
1000 to 3000 ft
1500m to 5 km
500 to 1000 ft
800 to 1500m
200 to 500 ft
< 800m
< 200 ft
Symbols :   Thunderstorms  Fog  Heavy snow  Heavy precipitations  Wind > 20 kt






- Airport Elevation : 298 ft
- IATA code : PIB


KPIB - Hattiesburg Laurel Regional

CURRENT METAR :
  • 091456Z AUTO 16005KT 4SM BR OVC005 15/15 A3000 RMK AO2 SLP158 6//// T01500150 53006 PNO $

EXPIRED METARs :
  • 091408Z AUTO 15005KT 3SM BR BKN005 OVC035 14/14 A3000 RMK AO2 CIG 003V009 PNO $
  • 091359Z AUTO 16004KT 2 1/2SM BR FEW005 BKN026 OVC035 14/14 A2999 RMK AO2 PNO $
  • 091356Z AUTO 17004KT 3SM BR FEW005 SCT025 OVC035 14/14 A2999 RMK AO2 SLP155 T01390139 PNO $
  • 091320Z AUTO 17004KT 3SM BR FEW008 BKN027 OVC035 13/13 A2998 RMK AO2 PNO $
  • 091256Z AUTO 16005KT 3SM BR BKN033 13/13 A2998 RMK AO2 SLP152 T01280128 PNO $
  • 091220Z AUTO 16004KT 3SM BR SCT028 OVC035 13/13 A2998 RMK AO2 PNO $
  • 091212Z AUTO 17003KT 3SM BR FEW001 BKN028 OVC035 13/13 A2999 RMK AO2 PNO $
  • 091206Z AUTO 16003KT 1 1/4SM BR SCT001 BKN028 OVC035 13/13 A2998 RMK AO2 PNO $

TAF KPIB
Valid from the 09 at 12:00 until the 10 at 12:00 UTC


091120Z 0912/1012 16003KT 3SM BR BKN002
FM091500 18006KT P6SM BKN012
FM092000 18007KT P6SM BKN035
FM100400 18006KT P6SM VCSH OVC007
FM100700 19005KT 5SM BR VCSH OVC005



MET'MAP, your aeronautical weather chart ! - Copyright ORBIFLY December 2007 - Disclaimer

ORBIFLY MET'MAP TEAM :

Programming & Development : Alexandra Zaïnal
Concept & original design : Baudouin d'Aumeries
Assistance for programming : Marc-Olivier Méhu
Technical & hardware support : Manuel Goepfert

Contact : metmap@orbifly.com




SOURCES & CREDITS :

   NOAA       Earth
Advisory